createdAt,value
2022-08-28T00:00:55.212Z,28.00
2022-08-28T00:03:23.631Z,28.25
2022-08-28T00:05:52.274Z,28.63
2022-08-28T00:08:21.729Z,29.33
2022-08-28T00:10:50.000Z,29.50
2022-08-28T00:13:20.527Z,28.02
2022-08-28T00:15:53.042Z,26.83
2022-08-28T00:18:22.163Z,27.30
2022-08-28T00:20:51.004Z,28.77
2022-08-28T00:23:19.341Z,29.55
2022-08-28T00:25:48.887Z,29.00
2022-08-28T00:28:24.011Z,28.23
2022-08-28T00:30:54.748Z,27.10
2022-08-28T00:33:25.131Z,26.75
2022-08-28T00:35:54.589Z,27.00
2022-08-28T00:38:24.109Z,26.88
2022-08-28T00:40:57.374Z,26.50
2022-08-28T00:43:35.274Z,27.48
2022-08-28T00:46:05.621Z,26.40
2022-08-28T00:48:34.185Z,26.98
2022-08-28T00:51:21.200Z,25.85
2022-08-28T00:53:49.335Z,26.38
2022-08-28T00:56:20.533Z,27.80
2022-08-28T00:58:50.347Z,27.33
2022-08-28T01:01:19.656Z,29.58
2022-08-28T01:03:47.585Z,26.98
2022-08-28T01:06:17.621Z,27.13
2022-08-28T01:08:50.609Z,28.02
2022-08-28T01:11:21.655Z,27.15
2022-08-28T01:13:54.354Z,27.33
2022-08-28T01:16:23.412Z,27.63
2022-08-28T01:19:00.532Z,28.10
2022-08-28T01:21:33.591Z,27.38
2022-08-28T01:24:06.038Z,28.38
2022-08-28T01:26:34.059Z,28.50
2022-08-28T01:29:02.953Z,28.50
2022-08-28T01:31:32.741Z,29.15
2022-08-28T01:34:00.863Z,28.45
2022-08-28T01:36:30.115Z,31.55
2022-08-28T01:39:02.375Z,29.48
2022-08-28T01:41:32.096Z,28.60
2022-08-28T01:44:00.008Z,29.63
2022-08-28T01:46:28.230Z,29.45
2022-08-28T01:48:56.891Z,29.02
2022-08-28T01:51:25.113Z,29.75
2022-08-28T01:53:53.320Z,29.52
2022-08-28T01:56:21.783Z,30.77
2022-08-28T01:58:51.436Z,31.00
2022-08-28T02:01:21.872Z,32.25
2022-08-28T02:03:53.107Z,32.47
2022-08-28T02:06:21.265Z,32.20
2022-08-28T02:08:54.633Z,30.85
2022-08-28T02:11:23.847Z,31.38
2022-08-28T02:13:56.334Z,31.70
2022-08-28T02:16:25.071Z,31.73
2022-08-28T02:18:53.702Z,31.40
2022-08-28T02:21:22.307Z,29.77
2022-08-28T02:23:50.336Z,31.10
2022-08-28T02:26:18.606Z,32.50
2022-08-28T02:28:46.907Z,33.10
2022-08-28T02:31:16.692Z,30.70
2022-08-28T02:33:45.812Z,31.45
2022-08-28T02:36:16.050Z,28.38
2022-08-28T02:38:45.055Z,30.08
2022-08-28T02:41:13.664Z,29.67
2022-08-28T02:43:41.679Z,29.83
2022-08-28T02:46:10.000Z,30.85
2022-08-28T02:48:40.812Z,30.75
2022-08-28T02:51:12.878Z,30.83
2022-08-28T02:53:42.269Z,30.35
2022-08-28T02:56:10.634Z,31.75
2022-08-28T02:58:39.381Z,30.13
2022-08-28T03:01:11.046Z,29.40
2022-08-28T03:03:41.379Z,28.70
2022-08-28T03:06:10.499Z,29.70
2022-08-28T03:08:38.466Z,29.20
2022-08-28T03:11:06.621Z,28.98
2022-08-28T03:13:34.795Z,30.08
2022-08-28T03:16:04.816Z,30.08
2022-08-28T03:18:33.214Z,29.70
2022-08-28T03:21:02.947Z,29.85
2022-08-28T03:23:30.215Z,29.95
2022-08-28T03:26:00.672Z,29.90
2022-08-28T03:28:31.584Z,30.75
2022-08-28T03:31:00.025Z,30.42
2022-08-28T03:33:28.642Z,30.42
2022-08-28T03:35:56.989Z,29.05
2022-08-28T03:38:26.905Z,28.38
2022-08-28T03:40:55.513Z,29.27
2022-08-28T03:43:25.080Z,30.35
2022-08-28T03:45:58.177Z,29.33
2022-08-28T03:48:27.286Z,29.55
2022-08-28T03:50:57.419Z,29.13
2022-08-28T03:53:28.975Z,27.88
2022-08-28T03:55:57.981Z,28.85
2022-08-28T03:58:26.614Z,27.35
2022-08-28T04:00:54.811Z,26.65
2022-08-28T04:03:22.876Z,28.73
2022-08-28T04:05:51.835Z,27.38
2022-08-28T04:08:21.070Z,28.17
2022-08-28T04:10:51.484Z,28.83
2022-08-28T04:13:22.157Z,29.55
2022-08-28T04:15:58.785Z,29.40
2022-08-28T04:18:27.304Z,28.65
2022-08-28T04:21:03.265Z,28.88
2022-08-28T04:23:31.584Z,29.50
2022-08-28T04:26:01.049Z,28.83
2022-08-28T04:28:29.194Z,29.15
2022-08-28T04:30:57.377Z,28.48
2022-08-28T04:33:27.305Z,30.20
2022-08-28T04:35:55.707Z,28.85
2022-08-28T04:38:23.891Z,28.05
2022-08-28T04:40:51.838Z,29.95
2022-08-28T04:43:21.483Z,28.92
2022-08-28T04:45:49.542Z,30.25
2022-08-28T04:48:17.832Z,28.63
2022-08-28T04:50:47.877Z,28.58
2022-08-28T04:53:18.178Z,29.25
2022-08-28T04:55:54.210Z,28.35
2022-08-28T04:58:24.699Z,27.13
2022-08-28T05:00:54.604Z,27.02
2022-08-28T05:03:23.206Z,27.05
2022-08-28T05:05:54.140Z,25.80
2022-08-28T05:08:27.770Z,24.60
2022-08-28T05:10:58.052Z,27.45
2022-08-28T05:13:28.141Z,25.95
2022-08-28T05:15:56.345Z,26.05
2022-08-28T05:18:25.487Z,25.63
2022-08-28T05:20:53.451Z,25.48
2022-08-28T05:23:22.148Z,26.00
2022-08-28T05:25:53.752Z,26.05
2022-08-28T05:28:22.202Z,25.42
2022-08-28T05:30:52.293Z,24.48
2022-08-28T05:33:21.123Z,25.02
2022-08-28T05:35:49.375Z,24.95
2022-08-28T05:38:18.260Z,24.23
2022-08-28T05:40:49.087Z,24.90
2022-08-28T05:43:18.477Z,23.98
2022-08-28T05:45:46.603Z,24.10
2022-08-28T05:48:16.281Z,23.60
2022-08-28T05:50:47.460Z,24.40
2022-08-28T05:53:17.361Z,23.70
2022-08-28T05:55:51.718Z,23.65
2022-08-28T05:58:33.709Z,22.80
2022-08-28T06:01:14.831Z,22.65
2022-08-28T06:03:47.441Z,23.48
2022-08-28T06:06:15.537Z,23.40
2022-08-28T06:08:58.225Z,22.95
2022-08-28T06:11:27.512Z,23.42
2022-08-28T06:14:01.537Z,22.95
2022-08-28T06:16:30.589Z,22.67
2022-08-28T06:19:00.603Z,21.63
2022-08-28T06:21:29.009Z,21.42
2022-08-28T06:23:57.419Z,21.55
2022-08-28T06:26:25.409Z,21.00
2022-08-28T06:28:53.619Z,21.55
2022-08-28T06:31:24.464Z,19.15
2022-08-28T06:33:54.624Z,16.40
2022-08-28T06:36:24.468Z,16.38
2022-08-28T06:38:52.429Z,14.48
2022-08-28T06:41:20.738Z,13.98
2022-08-28T06:43:49.261Z,14.63
2022-08-28T06:46:18.002Z,12.13
2022-08-28T06:48:46.300Z,12.25
2022-08-28T06:51:15.862Z,12.52
2022-08-28T06:53:47.211Z,12.90
2022-08-28T06:56:25.567Z,12.82
2022-08-28T06:58:56.935Z,12.73
2022-08-28T07:01:29.708Z,11.82
2022-08-28T07:04:02.611Z,11.90
2022-08-28T07:06:34.530Z,12.68
2022-08-28T07:09:06.535Z,12.77
2022-08-28T07:11:37.521Z,12.88
2022-08-28T07:14:06.483Z,13.88
2022-08-28T07:16:40.087Z,12.95
2022-08-28T07:19:14.577Z,14.15
2022-08-28T07:21:44.879Z,14.07
2022-08-28T07:24:16.728Z,13.85
2022-08-28T07:26:47.023Z,14.40
2022-08-28T07:29:15.563Z,13.10
2022-08-28T07:31:48.340Z,11.10
2022-08-28T07:34:18.037Z,12.63
2022-08-28T07:36:46.538Z,12.18
2022-08-28T07:39:17.487Z,12.43
2022-08-28T07:41:47.458Z,11.73
2022-08-28T07:44:33.787Z,11.88
2022-08-28T07:47:04.630Z,11.15
2022-08-28T07:49:33.664Z,13.63
2022-08-28T07:52:02.241Z,11.85
2022-08-28T07:54:32.010Z,10.10
2022-08-28T07:57:02.140Z,10.55
2022-08-28T07:59:36.618Z,9.90
2022-08-28T08:02:05.875Z,8.75
2022-08-28T08:04:34.027Z,9.70
2022-08-28T08:07:04.031Z,9.65
2022-08-28T08:09:38.404Z,10.32
2022-08-28T08:12:07.542Z,9.75
2022-08-28T08:14:38.742Z,9.48
2022-08-28T08:17:07.950Z,9.32
2022-08-28T08:19:37.288Z,9.32
2022-08-28T08:22:05.605Z,8.60
2022-08-28T08:24:35.652Z,8.77
2022-08-28T08:27:04.300Z,8.90
2022-08-28T08:29:35.547Z,5.30
2022-08-28T08:32:08.041Z,3.30
2022-08-28T08:34:38.540Z,2.90
2022-08-28T08:37:06.866Z,2.67
2022-08-28T08:39:37.856Z,2.60
2022-08-28T08:42:12.774Z,2.42
2022-08-28T08:44:42.891Z,2.20
2022-08-28T08:47:16.587Z,2.22
2022-08-28T08:49:53.107Z,2.45
2022-08-28T08:52:38.170Z,2.28
2022-08-28T08:55:24.756Z,2.70
2022-08-28T08:58:05.645Z,2.40
2022-08-28T09:00:40.542Z,2.22
2022-08-28T09:03:15.613Z,2.65
2022-08-28T09:05:50.058Z,2.45
2022-08-28T09:08:27.845Z,2.33
2022-08-28T09:11:03.033Z,2.30
2022-08-28T09:13:43.018Z,2.88
2022-08-28T09:16:19.087Z,2.50
2022-08-28T09:18:48.477Z,2.85
2022-08-28T09:21:29.307Z,2.30
2022-08-28T09:24:01.286Z,2.20
2022-08-28T09:26:36.042Z,2.58
2022-08-28T09:29:07.508Z,2.40
2022-08-28T09:31:38.318Z,2.08
2022-08-28T09:34:24.024Z,2.28
2022-08-28T09:36:53.111Z,2.30
2022-08-28T09:39:23.741Z,2.38
2022-08-28T09:42:21.880Z,2.20
2022-08-28T09:45:01.468Z,2.17
2022-08-28T09:47:46.871Z,1.98
2022-08-28T09:50:31.455Z,2.08
2022-08-28T09:53:17.231Z,2.20
2022-08-28T09:55:56.464Z,2.10
2022-08-28T09:58:37.389Z,1.88
2022-08-28T10:01:49.122Z,2.42
2022-08-28T10:04:38.658Z,1.90
2022-08-28T10:07:13.196Z,2.17
2022-08-28T10:09:55.642Z,2.10
2022-08-28T10:12:41.941Z,2.30
2022-08-28T10:15:17.902Z,2.30
2022-08-28T10:17:59.197Z,1.95
2022-08-28T10:20:42.489Z,2.00
2022-08-28T10:23:19.159Z,2.05
2022-08-28T10:25:54.802Z,2.10
2022-08-28T10:28:36.946Z,2.25
2022-08-28T10:31:13.748Z,2.40
2022-08-28T10:33:55.444Z,2.33
2022-08-28T10:36:34.864Z,1.90
2022-08-28T10:39:17.722Z,2.20
2022-08-28T10:41:49.015Z,2.15
2022-08-28T10:44:22.287Z,2.08
2022-08-28T10:46:56.058Z,2.03
2022-08-28T10:49:29.872Z,2.47
2022-08-28T10:52:02.145Z,2.20
2022-08-28T10:54:38.005Z,2.00
2022-08-28T10:57:15.998Z,2.00
2022-08-28T10:59:49.551Z,2.05
2022-08-28T11:02:21.355Z,2.30
2022-08-28T11:04:49.950Z,1.98
2022-08-28T11:07:24.970Z,2.30
2022-08-28T11:09:53.337Z,2.00
2022-08-28T11:12:42.852Z,2.10
2022-08-28T11:15:45.292Z,2.05
2022-08-28T11:18:49.734Z,2.20
2022-08-28T11:21:24.792Z,2.00
2022-08-28T11:24:01.345Z,2.25
2022-08-28T11:26:41.208Z,2.08
2022-08-28T11:29:09.437Z,2.08
2022-08-28T11:31:43.833Z,2.20
2022-08-28T11:34:45.936Z,2.13
2022-08-28T11:37:40.429Z,2.25
2022-08-28T11:40:19.080Z,2.20
2022-08-28T11:42:48.868Z,2.10
2022-08-28T11:45:22.331Z,2.00
2022-08-28T11:47:56.471Z,2.10
2022-08-28T11:50:30.175Z,1.95
2022-08-28T11:53:44.131Z,1.70
2022-08-28T11:56:39.952Z,2.00
2022-08-28T11:59:35.104Z,2.00
2022-08-28T12:02:37.179Z,1.83
2022-08-28T12:05:09.497Z,1.80
2022-08-28T12:07:39.795Z,2.03
2022-08-28T12:10:54.429Z,2.20
2022-08-28T12:13:48.383Z,1.90
2022-08-28T12:16:17.936Z,1.88
2022-08-28T12:19:03.993Z,1.80
2022-08-28T12:21:36.807Z,2.15
2022-08-28T12:24:09.084Z,1.90
2022-08-28T12:26:43.188Z,1.75
2022-08-28T12:29:27.248Z,2.28
2022-08-28T12:32:27.383Z,1.77
2022-08-28T12:35:18.564Z,1.83
2022-08-28T12:38:00.096Z,1.92
2022-08-28T12:40:31.225Z,1.73
2022-08-28T12:43:02.791Z,2.22
2022-08-28T12:45:38.345Z,2.10
2022-08-28T12:48:19.159Z,2.22
2022-08-28T12:51:13.792Z,2.20
2022-08-28T12:53:44.888Z,1.85
2022-08-28T13:20:29.360Z,2.10
2022-08-28T13:23:01.665Z,2.20
2022-08-28T13:25:34.078Z,1.98
2022-08-28T13:28:04.964Z,2.00
2022-08-28T13:30:37.435Z,1.90
2022-08-28T13:33:20.131Z,2.03
2022-08-28T13:35:51.123Z,2.33
2022-08-28T13:38:20.550Z,2.40
2022-08-28T13:40:58.046Z,2.10
2022-08-28T13:43:29.466Z,2.00
2022-08-28T13:45:58.096Z,1.90
2022-08-28T13:48:28.118Z,2.03
2022-08-28T13:51:03.115Z,2.55
2022-08-28T13:53:33.635Z,2.00
2022-08-28T13:56:02.962Z,1.83
2022-08-28T13:58:31.067Z,2.10
2022-08-28T14:00:59.780Z,2.20
2022-08-28T14:03:35.830Z,2.13
2022-08-28T14:06:08.518Z,2.00
2022-08-28T14:08:36.754Z,2.20
2022-08-28T14:11:05.055Z,2.10
2022-08-28T14:13:33.049Z,1.60
2022-08-28T14:16:01.323Z,1.77
2022-08-28T14:18:29.265Z,2.10
2022-08-28T14:20:57.761Z,1.75
2022-08-28T14:23:27.525Z,1.98
2022-08-28T14:25:55.618Z,2.13
2022-08-28T14:28:24.172Z,1.90
2022-08-28T14:30:52.988Z,1.70
2022-08-28T14:33:21.166Z,2.00
2022-08-28T14:35:55.808Z,1.95
2022-08-28T14:38:38.795Z,1.92
2022-08-28T14:41:10.157Z,1.80
2022-08-28T14:43:38.469Z,2.10
2022-08-28T14:46:11.414Z,2.03
2022-08-28T14:48:39.966Z,2.60
2022-08-28T14:51:11.019Z,3.60
2022-08-28T14:53:38.946Z,6.68
2022-08-28T14:56:08.023Z,6.05
2022-08-28T14:58:38.012Z,2.30
2022-08-28T15:01:06.577Z,2.55
2022-08-28T15:03:34.881Z,3.50
2022-08-28T15:06:03.738Z,4.05
2022-08-28T15:08:31.955Z,3.50
2022-08-28T15:11:00.123Z,2.30
2022-08-28T15:13:31.434Z,29.48
2022-08-28T15:16:05.285Z,8.32
2022-08-28T15:18:43.769Z,2.75
2022-08-28T15:21:16.811Z,2.85
2022-08-28T15:23:44.780Z,2.25
2022-08-28T15:26:23.778Z,2.13
2022-08-28T15:28:55.475Z,2.20
2022-08-28T15:31:25.759Z,1.90
2022-08-28T15:33:54.380Z,2.13
2022-08-28T15:36:23.034Z,1.80
2022-08-28T15:39:05.055Z,1.98
2022-08-28T15:41:33.130Z,2.10
2022-08-28T15:44:02.926Z,1.90
2022-08-28T15:46:35.001Z,2.55
2022-08-28T15:49:05.235Z,2.08
2022-08-28T15:51:36.773Z,1.90
2022-08-28T15:54:05.952Z,2.13
2022-08-28T15:56:33.930Z,1.98
2022-08-28T15:59:02.079Z,1.90
2022-08-28T16:01:30.166Z,2.10
2022-08-28T16:03:59.777Z,2.10
2022-08-28T16:06:28.955Z,2.00
2022-08-28T16:08:58.575Z,2.63
2022-08-28T16:11:27.355Z,2.20
2022-08-28T16:14:04.628Z,2.05
2022-08-28T16:16:34.240Z,2.00
2022-08-28T16:19:03.877Z,2.50
2022-08-28T16:21:32.922Z,2.10
2022-08-28T16:24:01.388Z,2.15
2022-08-28T16:26:29.962Z,2.00
2022-08-28T16:28:58.279Z,2.00
2022-08-28T16:31:27.253Z,2.17
2022-08-28T16:33:55.401Z,1.95
2022-08-28T16:36:25.300Z,1.88
2022-08-28T16:39:03.750Z,2.10
2022-08-28T16:41:32.721Z,1.95
2022-08-28T16:44:01.226Z,2.60
2022-08-28T16:46:29.492Z,2.30
2022-08-28T16:48:57.958Z,1.90
2022-08-28T16:51:29.284Z,2.38
2022-08-28T16:53:58.381Z,2.40
2022-08-28T16:56:26.623Z,2.22
2022-08-28T16:58:54.807Z,2.05
2022-08-28T17:01:24.203Z,2.03
2022-08-28T17:03:52.919Z,1.95
2022-08-28T17:06:23.761Z,2.20
2022-08-28T17:08:56.902Z,2.08
2022-08-28T17:11:26.079Z,1.92
2022-08-28T17:13:54.191Z,3.38
2022-08-28T17:16:23.924Z,5.13
2022-08-28T17:18:53.010Z,2.22
2022-08-28T17:21:39.102Z,2.42
2022-08-28T17:24:08.779Z,2.00
2022-08-28T17:26:36.859Z,2.33
2022-08-28T17:29:05.399Z,2.13
2022-08-28T17:31:33.808Z,1.90
2022-08-28T17:34:01.870Z,1.85
2022-08-28T17:36:33.402Z,1.98
2022-08-28T17:39:06.170Z,2.00
2022-08-28T17:41:35.857Z,2.10
2022-08-28T17:44:05.423Z,2.00
2022-08-28T17:46:38.190Z,1.92
2022-08-28T17:49:10.442Z,1.90
2022-08-28T17:51:44.448Z,1.90
2022-08-28T17:54:14.179Z,2.25
2022-08-28T17:56:43.876Z,2.30
2022-08-28T17:59:15.035Z,2.13
2022-08-28T18:01:45.310Z,2.05
2022-08-28T18:04:14.687Z,2.10
2022-08-28T18:06:43.546Z,2.00
2022-08-28T18:09:11.997Z,2.13
2022-08-28T18:11:40.967Z,1.90
2022-08-28T18:14:11.734Z,1.80
2022-08-28T18:16:40.210Z,2.25
2022-08-28T18:19:11.164Z,1.65
2022-08-28T18:21:44.113Z,2.00
2022-08-28T18:24:13.230Z,1.85
2022-08-28T18:26:43.098Z,1.83
2022-08-28T18:29:13.209Z,2.00
2022-08-28T18:31:42.194Z,1.85
2022-08-28T18:34:11.830Z,2.10
2022-08-28T18:36:41.589Z,2.15
2022-08-28T18:39:10.956Z,1.90
2022-08-28T18:41:43.620Z,2.10
2022-08-28T18:44:15.937Z,1.95
2022-08-28T18:46:44.999Z,1.73
2022-08-28T18:49:14.157Z,2.05
2022-08-28T18:51:43.447Z,2.10
2022-08-28T18:54:12.203Z,2.10
2022-08-28T18:56:41.232Z,2.20
2022-08-28T18:59:11.696Z,2.33
2022-08-28T19:01:43.427Z,2.08
2022-08-28T19:04:12.084Z,2.00
2022-08-28T19:06:42.258Z,2.50
2022-08-28T19:09:19.196Z,2.28
2022-08-28T19:11:49.239Z,2.33
2022-08-28T19:14:17.504Z,2.25
2022-08-28T19:16:47.350Z,2.60
2022-08-28T19:19:16.014Z,2.78
2022-08-28T19:21:44.900Z,2.47
2022-08-28T19:24:16.384Z,2.80
2022-08-28T19:26:45.467Z,2.78
2022-08-28T19:29:15.773Z,2.80
2022-08-28T19:31:44.785Z,3.50
2022-08-28T19:34:14.313Z,2.75
2022-08-28T19:36:42.757Z,3.20
2022-08-28T19:39:10.769Z,3.00
2022-08-28T19:41:39.303Z,2.78
2022-08-28T19:44:08.554Z,2.67
2022-08-28T19:46:37.075Z,2.83
2022-08-28T19:49:07.608Z,3.00
2022-08-28T19:51:41.675Z,3.42
2022-08-28T19:54:11.276Z,3.55
2022-08-28T19:56:40.066Z,3.63
2022-08-28T19:59:09.084Z,3.95
2022-08-28T20:01:40.461Z,4.13
2022-08-28T20:04:13.379Z,4.22
2022-08-28T20:06:43.525Z,5.22
2022-08-28T20:09:14.477Z,5.03
2022-08-28T20:11:45.071Z,6.03
2022-08-28T20:14:17.484Z,6.63
2022-08-28T20:16:48.716Z,7.20
2022-08-28T20:19:17.894Z,6.80
2022-08-28T20:21:50.321Z,8.52
2022-08-28T20:24:23.303Z,8.88
2022-08-28T20:26:52.176Z,10.50
2022-08-28T20:29:20.361Z,11.88
2022-08-28T20:31:49.662Z,13.63
2022-08-28T20:34:20.569Z,13.90
2022-08-28T20:36:50.312Z,14.50
2022-08-28T20:39:19.806Z,14.40
2022-08-28T20:41:49.246Z,15.30
2022-08-28T20:44:19.675Z,14.68
2022-08-28T20:46:50.983Z,16.45
2022-08-28T20:49:22.120Z,16.48
2022-08-28T20:51:56.958Z,16.25
2022-08-28T20:54:29.167Z,16.10
2022-08-28T20:56:58.667Z,17.25
2022-08-28T20:59:28.768Z,17.63
2022-08-28T21:02:05.326Z,17.23
2022-08-28T21:04:36.161Z,17.90
2022-08-28T21:07:06.368Z,16.17
2022-08-28T21:09:53.739Z,16.00
2022-08-28T21:12:22.658Z,16.70
2022-08-28T21:14:53.529Z,15.98
2022-08-28T21:17:28.965Z,16.20
2022-08-28T21:20:00.300Z,17.27
2022-08-28T21:22:31.617Z,18.40
2022-08-28T21:25:00.039Z,17.60
2022-08-28T21:27:28.326Z,19.50
2022-08-28T21:29:58.371Z,18.25
2022-08-28T21:32:27.008Z,18.73
2022-08-28T21:34:55.247Z,19.50
2022-08-28T21:37:24.445Z,18.35
2022-08-28T21:39:56.635Z,20.48
2022-08-28T21:42:25.220Z,20.15
2022-08-28T21:44:54.606Z,20.00
2022-08-28T21:47:24.057Z,22.23
2022-08-28T21:49:54.199Z,22.17
2022-08-28T21:52:24.157Z,22.38
2022-08-28T21:54:58.165Z,22.38
2022-08-28T21:57:26.529Z,21.40
2022-08-28T21:59:55.408Z,21.38
2022-08-28T22:02:23.590Z,20.08
2022-08-28T22:04:52.144Z,20.45
2022-08-28T22:07:20.690Z,18.73
2022-08-28T22:09:48.671Z,20.52
2022-08-28T22:12:18.049Z,19.90
2022-08-28T22:14:46.243Z,18.95
2022-08-28T22:17:15.075Z,19.67
2022-08-28T22:19:43.076Z,18.38
2022-08-28T22:22:32.617Z,18.08
2022-08-28T22:25:00.551Z,17.48
2022-08-28T22:27:31.804Z,18.10
2022-08-28T22:29:59.871Z,18.10
2022-08-28T22:32:28.065Z,17.90
2022-08-28T22:34:56.252Z,17.80
2022-08-28T22:37:25.828Z,17.25
2022-08-28T22:39:53.900Z,17.05
2022-08-28T22:42:23.018Z,17.88
2022-08-28T22:44:52.435Z,16.50
2022-08-28T22:47:20.506Z,16.95
2022-08-28T22:49:48.674Z,17.27
2022-08-28T22:52:17.381Z,17.33
2022-08-28T22:54:45.659Z,16.92
2022-08-28T22:57:14.920Z,16.25
2022-08-28T22:59:42.941Z,18.05
2022-08-28T23:02:12.821Z,17.30
2022-08-28T23:04:40.951Z,17.55
2022-08-28T23:07:09.188Z,18.50
2022-08-28T23:09:37.341Z,17.38
2022-08-28T23:12:06.066Z,17.92
2022-08-28T23:14:34.240Z,18.80
2022-08-28T23:17:02.275Z,18.08
2022-08-28T23:19:31.795Z,18.23
2022-08-28T23:22:00.020Z,18.40
2022-08-28T23:24:28.351Z,17.52
2022-08-28T23:26:56.384Z,16.88
2022-08-28T23:29:24.491Z,18.17
2022-08-28T23:31:52.544Z,16.65
2022-08-28T23:34:20.547Z,17.55
2022-08-28T23:36:50.281Z,17.95
2022-08-28T23:39:18.442Z,17.40
2022-08-28T23:41:46.618Z,18.90
2022-08-28T23:44:14.706Z,18.95
2022-08-28T23:46:42.689Z,17.95
2022-08-28T23:49:11.562Z,17.75
2022-08-28T23:51:40.259Z,19.10
2022-08-28T23:54:10.854Z,19.80
2022-08-28T23:56:39.364Z,19.70
2022-08-28T23:59:07.518Z,22.35
